Time;durP1;ratioP1;P1;durP2;ratioP2;P2;SDS_P1;SDS_P2;PMS_P1;PMS_P2;Temp;Humidity;BMP_temperature;BMP_pressure;BME280_temperature;BME280_humidity;BME280_pressure;Samples;Min_cycle;Max_cycle;Signal;HPM_P1;HPM_P2
2021/12/11 07:34:07;;;;;;;41.90;21.55;;;;;;;;;;5693459;23;20132;-67
2021/12/11 07:36:33;;;;;;;45.10;23.98;;;;;;;;;;4934996;29;20126;-67
2021/12/11 07:39:01;;;;;;;47.03;23.13;;;;;;;;;;4954185;28;20053;-69
2021/12/11 07:41:27;;;;;;;45.17;22.83;;;;;;;;;;4952996;28;20035;-65
2021/12/11 07:43:53;;;;;;;46.28;22.55;;;;;;;;;;4952946;28;20053;-70
2021/12/11 07:46:23;;;;;;;46.85;24.63;;;;;;;;;;4952963;29;20070;-63
2021/12/11 07:48:49;;;;;;;44.35;23.17;;;;;;;;;;4954038;28;20031;-70
2021/12/11 07:51:16;;;;;;;44.38;23.63;;;;;;;;;;4954314;28;20442;-63
2021/12/11 07:53:42;;;;;;;40.72;22.55;;;;;;;;;;4954073;28;20058;-64
2021/12/11 07:56:09;;;;;;;41.78;21.80;;;;;;;;;;4952766;28;20058;-62
2021/12/11 07:58:36;;;;;;;38.53;21.10;;;;;;;;;;4954792;29;20038;-65
2021/12/11 08:01:07;;;;;;;39.03;21.25;;;;;;;;;;4955364;29;20031;-69
2021/12/11 08:03:33;;;;;;;32.08;18.63;;;;;;;;;;4956012;28;20087;-63
2021/12/11 08:05:59;;;;;;;34.38;17.45;;;;;;;;;;4955055;29;20126;-66
2021/12/11 08:08:25;;;;;;;31.27;16.13;;;;;;;;;;4953533;29;20039;-64
2021/12/11 08:10:55;;;;;;;27.15;15.52;;;;;;;;;;4954983;28;20474;-65
2021/12/11 08:13:21;;;;;;;31.15;17.02;;;;;;;;;;4954917;28;20027;-67
2021/12/11 08:15:47;;;;;;;33.13;17.75;;;;;;;;;;4954037;28;20031;-64
2021/12/11 08:18:14;;;;;;;38.97;20.83;;;;;;;;;;4953916;29;20027;-66
2021/12/11 08:20:43;;;;;;;34.28;19.10;;;;;;;;;;4954330;28;20474;-62
2021/12/11 08:23:13;;;;;;;38.75;19.98;;;;;;;;;;4953915;29;20067;-64
2021/12/11 08:25:41;;;;;;;32.28;17.50;;;;;;;;;;4954010;28;20037;-67
2021/12/11 08:28:09;;;;;;;29.67;16.98;;;;;;;;;;4955101;28;20103;-65
2021/12/11 08:30:36;;;;;;;34.20;18.65;;;;;;;;;;4961398;28;20030;-65
2021/12/11 08:33:06;;;;;;;37.95;19.15;;;;;;;;;;4960254;28;20074;-65
2021/12/11 08:35:41;;;;;;;39.08;20.08;;;;;;;;;;4977051;28;20050;-62
2021/12/11 08:38:11;;;;;;;38.28;19.80;;;;;;;;;;4986495;28;20038;-63
2021/12/11 08:40:39;;;;;;;41.80;22.83;;;;;;;;;;4984993;28;20493;-65
2021/12/11 08:43:07;;;;;;;38.38;21.02;;;;;;;;;;4981155;28;20572;-64
2021/12/11 08:45:45;;;;;;;35.63;20.48;;;;;;;;;;4979473;28;20023;-65
2021/12/11 08:48:20;;;;;;;44.70;22.13;;;;;;;;;;4977566;28;20793;-65
2021/12/11 08:50:48;;;;;;;39.95;21.83;;;;;;;;;;4979467;28;20351;-63
2021/12/11 08:53:14;;;;;;;40.10;21.25;;;;;;;;;;4980848;28;20023;-66
2021/12/11 08:55:41;;;;;;;39.22;20.50;;;;;;;;;;4982303;28;20033;-63
2021/12/11 08:58:09;;;;;;;39.08;20.38;;;;;;;;;;4977241;28;20037;-64
2021/12/11 09:00:41;;;;;;;43.22;21.98;;;;;;;;;;4986665;28;20093;-64
2021/12/11 09:03:26;;;;;;;38.03;19.80;;;;;;;;;;4945102;28;20031;-64
2021/12/11 09:05:52;;;;;;;37.83;19.73;;;;;;;;;;4962859;28;20042;-64
2021/12/11 09:08:21;;;;;;;33.92;18.20;;;;;;;;;;4962221;28;20490;-63
2021/12/11 09:10:50;;;;;;;34.65;17.08;;;;;;;;;;4962033;28;20059;-66
2021/12/11 09:13:22;;;;;;;33.42;16.98;;;;;;;;;;4962320;28;20034;-64
2021/12/11 09:15:54;;;;;;;33.93;17.37;;;;;;;;;;4962299;28;20042;-62
2021/12/11 09:18:25;;;;;;;31.55;18.23;;;;;;;;;;4961093;28;20031;-64
2021/12/11 09:20:57;;;;;;;29.10;15.43;;;;;;;;;;4942897;28;20420;-63
2021/12/11 09:23:26;;;;;;;38.72;19.63;;;;;;;;;;4961483;28;20019;-69
2021/12/11 09:25:58;;;;;;;41.75;21.00;;;;;;;;;;4963463;28;20039;-65
2021/12/11 09:28:44;;;;;;;35.65;20.17;;;;;;;;;;4963196;28;20050;-66
2021/12/11 09:31:17;;;;;;;32.38;18.02;;;;;;;;;;4962511;28;20029;-63
2021/12/11 09:33:48;;;;;;;34.53;19.30;;;;;;;;;;4980632;28;20027;-61
2021/12/11 09:36:17;;;;;;;36.17;18.98;;;;;;;;;;4974409;28;20066;-63
2021/12/11 09:38:45;;;;;;;33.95;19.75;;;;;;;;;;4976262;28;20034;-63
2021/12/11 09:41:21;;;;;;;32.83;19.15;;;;;;;;;;4968112;28;20450;-62
2021/12/11 09:43:48;;;;;;;39.13;22.00;;;;;;;;;;4965356;28;20027;-63
2021/12/11 09:46:16;;;;;;;42.13;23.42;;;;;;;;;;4963629;28;20031;-64
2021/12/11 09:48:44;;;;;;;43.95;23.95;;;;;;;;;;4965993;28;20035;-63
2021/12/11 09:51:15;;;;;;;41.55;21.40;;;;;;;;;;4964587;28;20494;-63
2021/12/11 09:53:44;;;;;;;42.20;22.27;;;;;;;;;;4964513;28;20066;-62
2021/12/11 09:56:13;;;;;;;36.38;19.80;;;;;;;;;;4961175;28;20035;-65
2021/12/11 09:58:40;;;;;;;36.92;18.88;;;;;;;;;;4971770;28;20147;-63
2021/12/11 10:01:06;;;;;;;34.70;18.55;;;;;;;;;;4959211;28;20027;-68
2021/12/11 10:03:35;;;;;;;34.17;18.42;;;;;;;;;;4956410;28;20517;-66
2021/12/11 10:06:14;;;;;;;30.88;17.88;;;;;;;;;;4973030;28;20070;-67
2021/12/11 10:08:43;;;;;;;34.28;17.08;;;;;;;;;;4975558;28;20041;-66
2021/12/11 10:11:16;;;;;;;29.20;16.20;;;;;;;;;;4975837;28;20034;-66
2021/12/11 10:13:48;;;;;;;36.58;18.30;;;;;;;;;;4975343;28;20062;-66
2021/12/11 10:16:15;;;;;;;27.90;15.98;;;;;;;;;;4975345;28;20035;-66
2021/12/11 10:18:42;;;;;;;29.90;16.40;;;;;;;;;;4974993;28;20504;-66
2021/12/11 10:21:14;;;;;;;31.05;17.05;;;;;;;;;;4975084;28;20031;-66
2021/12/11 10:23:41;;;;;;;31.70;17.35;;;;;;;;;;4975116;28;20019;-66
2021/12/11 10:26:10;;;;;;;30.77;17.20;;;;;;;;;;4975148;28;20097;-66
2021/12/11 10:28:38;;;;;;;34.15;18.25;;;;;;;;;;4975162;28;20382;-66
2021/12/11 10:31:07;;;;;;;33.65;18.50;;;;;;;;;;4957865;28;20022;-65
2021/12/11 10:33:34;;;;;;;33.30;17.92;;;;;;;;;;4974822;28;20054;-66
2021/12/11 10:36:02;;;;;;;34.63;18.15;;;;;;;;;;4974792;28;20168;-65
2021/12/11 10:38:29;;;;;;;39.03;19.63;;;;;;;;;;4974953;28;20030;-66
2021/12/11 10:40:56;;;;;;;35.08;19.15;;;;;;;;;;4975177;28;20034;-66
2021/12/11 10:43:28;;;;;;;35.90;20.17;;;;;;;;;;4974569;28;20031;-66
2021/12/11 10:45:54;;;;;;;40.50;20.80;;;;;;;;;;4975039;28;20461;-65
2021/12/11 10:48:25;;;;;;;40.70;22.10;;;;;;;;;;4974828;28;20066;-66
2021/12/11 10:50:54;;;;;;;37.65;19.45;;;;;;;;;;4974258;28;20033;-66
2021/12/11 10:53:22;;;;;;;42.28;21.60;;;;;;;;;;4974689;28;20027;-65
2021/12/11 10:55:48;;;;;;;31.83;16.48;;;;;;;;;;4974742;28;20390;-65
2021/12/11 10:58:17;;;;;;;26.95;14.32;;;;;;;;;;4974376;28;20482;-65
2021/12/11 11:00:46;;;;;;;32.05;17.58;;;;;;;;;;4973898;28;20058;-66
2021/12/11 11:03:12;;;;;;;30.73;16.27;;;;;;;;;;4974156;28;20105;-67
2021/12/11 11:05:38;;;;;;;28.90;15.38;;;;;;;;;;4956511;28;20039;-66
2021/12/11 11:08:06;;;;;;;26.52;14.85;;;;;;;;;;4974015;28;20034;-66
2021/12/11 11:10:34;;;;;;;24.05;13.48;;;;;;;;;;4973924;28;20035;-66
2021/12/11 11:13:02;;;;;;;27.02;15.65;;;;;;;;;;4973993;28;20042;-66
2021/12/11 11:15:28;;;;;;;24.50;13.35;;;;;;;;;;4956071;28;20398;-66
2021/12/11 11:17:55;;;;;;;23.65;11.77;;;;;;;;;;4973956;28;20026;-66
2021/12/11 11:20:30;;;;;;;25.48;14.98;;;;;;;;;;4974265;28;20061;-66
2021/12/11 11:22:57;;;;;;;21.27;12.05;;;;;;;;;;4973812;28;20114;-65
2021/12/11 11:25:28;;;;;;;22.63;12.65;;;;;;;;;;4956437;28;20038;-66
2021/12/11 11:27:57;;;;;;;27.53;13.33;;;;;;;;;;4974133;28;20050;-65
2021/12/11 11:30:29;;;;;;;27.25;14.43;;;;;;;;;;4973977;28;20053;-66
2021/12/11 11:32:56;;;;;;;25.15;13.07;;;;;;;;;;4974039;28;20029;-66
2021/12/11 11:35:24;;;;;;;24.95;13.25;;;;;;;;;;4973413;28;20042;-66
2021/12/11 11:37:51;;;;;;;19.65;11.60;;;;;;;;;;4973604;28;20034;-66
2021/12/11 11:40:23;;;;;;;23.10;12.25;;;;;;;;;;4956295;28;20031;-65
2021/12/11 11:42:50;;;;;;;23.52;12.23;;;;;;;;;;4973288;28;20557;-66
2021/12/11 11:45:16;;;;;;;22.40;11.55;;;;;;;;;;4973141;28;20031;-66
2021/12/11 11:47:43;;;;;;;20.08;10.68;;;;;;;;;;4973330;28;20034;-66
2021/12/11 11:50:11;;;;;;;22.95;11.93;;;;;;;;;;4972806;28;20019;-66
2021/12/11 11:52:39;;;;;;;22.65;13.25;;;;;;;;;;4973343;28;20034;-65
2021/12/11 11:55:07;;;;;;;23.13;11.63;;;;;;;;;;4972729;28;20019;-66
2021/12/11 11:57:35;;;;;;;21.50;10.82;;;;;;;;;;4973343;28;20041;-66
2021/12/11 12:00:04;;;;;;;25.48;12.82;;;;;;;;;;4973328;28;20122;-66
2021/12/11 12:02:31;;;;;;;22.00;12.73;;;;;;;;;;4973403;28;20054;-65
2021/12/11 12:04:58;;;;;;;18.95;10.40;;;;;;;;;;4972943;28;20077;-66
2021/12/11 12:07:28;;;;;;;22.83;11.40;;;;;;;;;;4972821;28;20041;-65
2021/12/11 12:09:55;;;;;;;28.98;14.30;;;;;;;;;;4972913;28;20039;-66
2021/12/11 12:12:22;;;;;;;25.58;13.10;;;;;;;;;;4972934;28;20031;-67
2021/12/11 12:14:49;;;;;;;22.77;11.30;;;;;;;;;;4972718;28;20436;-66
2021/12/11 12:17:19;;;;;;;20.40;11.52;;;;;;;;;;4972741;28;20038;-66
2021/12/11 12:19:46;;;;;;;17.95;10.35;;;;;;;;;;4972835;28;20051;-66
2021/12/11 12:22:14;;;;;;;21.23;10.63;;;;;;;;;;4973041;28;20471;-66
2021/12/11 12:24:44;;;;;;;21.17;10.45;;;;;;;;;;4972579;28;20037;-66
2021/12/11 12:27:12;;;;;;;21.88;11.68;;;;;;;;;;4954680;28;20035;-66
2021/12/11 12:29:40;;;;;;;24.35;12.35;;;;;;;;;;4972681;28;20089;-63
2021/12/11 12:32:10;;;;;;;24.13;13.10;;;;;;;;;;4972751;28;20371;-65
2021/12/11 12:34:36;;;;;;;22.58;11.98;;;;;;;;;;4972320;28;20042;-67
2021/12/11 12:37:06;;;;;;;19.35;9.95;;;;;;;;;;4972285;28;20128;-65
2021/12/11 12:39:38;;;;;;;15.27;8.35;;;;;;;;;;4972091;28;20037;-66
2021/12/11 12:42:33;;;;;;;17.50;7.97;;;;;;;;;;4972591;28;20026;-66
2021/12/11 12:45:12;;;;;;;18.40;9.40;;;;;;;;;;4972555;28;20046;-65
2021/12/11 12:47:41;;;;;;;19.27;9.50;;;;;;;;;;4972497;28;20038;-66
2021/12/11 12:50:11;;;;;;;16.83;8.77;;;;;;;;;;4972485;28;20105;-66
2021/12/11 12:52:42;;;;;;;20.48;9.52;;;;;;;;;;4955160;28;20031;-65
2021/12/11 12:55:11;;;;;;;16.30;8.45;;;;;;;;;;4972324;28;20026;-66
2021/12/11 12:57:39;;;;;;;19.77;10.38;;;;;;;;;;4972331;28;20077;-66
2021/12/11 13:00:14;;;;;;;19.67;10.27;;;;;;;;;;4971847;28;20022;-68
2021/12/11 13:02:41;;;;;;;20.90;10.52;;;;;;;;;;4972001;28;20102;-66
2021/12/11 13:05:17;;;;;;;13.95;7.47;;;;;;;;;;4972359;28;20431;-68
2021/12/11 13:07:44;;;;;;;13.88;8.43;;;;;;;;;;4972102;28;20033;-67
2021/12/11 13:10:16;;;;;;;18.17;8.98;;;;;;;;;;4972262;28;20026;-67
2021/12/11 13:12:44;;;;;;;18.73;10.20;;;;;;;;;;4954734;28;20027;-67
2021/12/11 13:15:13;;;;;;;18.52;8.88;;;;;;;;;;4972033;28;20031;-67
2021/12/11 13:17:41;;;;;;;18.60;10.02;;;;;;;;;;4972040;28;20534;-68
2021/12/11 13:20:14;;;;;;;15.45;8.35;;;;;;;;;;4972180;28;20078;-66
2021/12/11 13:22:42;;;;;;;14.10;7.68;;;;;;;;;;4972290;28;20471;-66
2021/12/11 13:25:14;;;;;;;15.60;8.80;;;;;;;;;;4971840;28;20036;-66
2021/12/11 13:27:41;;;;;;;16.65;8.55;;;;;;;;;;4972058;28;20062;-66
2021/12/11 13:30:09;;;;;;;19.17;10.93;;;;;;;;;;4972170;28;20541;-66
2021/12/11 13:32:35;;;;;;;22.40;12.10;;;;;;;;;;4971619;28;20026;-66
2021/12/11 13:35:06;;;;;;;23.88;12.95;;;;;;;;;;4971345;28;20435;-66
2021/12/11 13:37:33;;;;;;;28.90;14.48;;;;;;;;;;4971801;28;20475;-66
2021/12/11 13:40:00;;;;;;;33.88;15.65;;;;;;;;;;4972144;28;20054;-66
2021/12/11 13:42:28;;;;;;;20.77;11.98;;;;;;;;;;4971799;28;20026;-66
2021/12/11 13:44:56;;;;;;;32.00;13.50;;;;;;;;;;4971353;28;20027;-66
2021/12/11 13:47:24;;;;;;;21.17;13.35;;;;;;;;;;4971967;28;20453;-66
2021/12/11 13:49:50;;;;;;;24.85;14.45;;;;;;;;;;4971797;28;20355;-66
2021/12/11 13:52:17;;;;;;;25.17;13.63;;;;;;;;;;4971646;28;20062;-64
2021/12/11 13:54:43;;;;;;;27.15;14.18;;;;;;;;;;4970963;28;20026;-64
2021/12/11 13:57:20;;;;;;;22.38;12.95;;;;;;;;;;4964677;28;20065;-65
2021/12/11 13:59:46;;;;;;;25.33;13.88;;;;;;;;;;4967225;28;20034;-64
2021/12/11 14:02:14;;;;;;;31.90;17.48;;;;;;;;;;4976660;28;20062;-64
2021/12/11 14:04:45;;;;;;;34.53;19.52;;;;;;;;;;4991402;28;20409;-65
2021/12/11 14:07:18;;;;;;;27.23;16.88;;;;;;;;;;4990125;28;20121;-64
2021/12/11 14:09:48;;;;;;;37.28;20.40;;;;;;;;;;4991190;28;20050;-65
2021/12/11 14:12:14;;;;;;;34.55;20.00;;;;;;;;;;4993033;28;20019;-64
2021/12/11 14:14:45;;;;;;;31.90;17.70;;;;;;;;;;4994830;28;20654;-67
2021/12/11 14:17:11;;;;;;;37.92;22.35;;;;;;;;;;4962307;28;20457;-66
2021/12/11 14:19:38;;;;;;;31.08;17.88;;;;;;;;;;4995694;28;20045;-64
2021/12/11 14:22:05;;;;;;;36.22;20.60;;;;;;;;;;4969857;28;20031;-65
2021/12/11 14:24:32;;;;;;;35.08;20.80;;;;;;;;;;4963081;28;20031;-65
2021/12/11 14:26:59;;;;;;;35.97;20.95;;;;;;;;;;4962502;28;20043;-65
2021/12/11 14:29:26;;;;;;;48.60;26.08;;;;;;;;;;4964008;28;20105;-65
2021/12/11 14:31:52;;;;;;;36.45;21.13;;;;;;;;;;4964723;28;20039;-64
2021/12/11 14:34:18;;;;;;;42.47;23.83;;;;;;;;;;4955387;28;20126;-64
2021/12/11 14:36:45;;;;;;;51.60;27.45;;;;;;;;;;4957276;28;20057;-68
2021/12/11 14:39:14;;;;;;;48.85;28.27;;;;;;;;;;4948077;28;20015;-64
2021/12/11 14:41:42;;;;;;;55.05;31.40;;;;;;;;;;4974416;28;20034;-66
2021/12/11 14:44:14;;;;;;;50.55;27.42;;;;;;;;;;4973771;28;20078;-63
2021/12/11 14:46:40;;;;;;;58.10;31.05;;;;;;;;;;4974307;28;20125;-65
2021/12/11 14:49:06;;;;;;;51.13;30.45;;;;;;;;;;4974612;28;20150;-64
2021/12/11 14:51:32;;;;;;;51.05;30.55;;;;;;;;;;4959185;28;20027;-64
2021/12/11 14:53:59;;;;;;;57.58;36.38;;;;;;;;;;4954771;28;20031;-64
2021/12/11 14:56:29;;;;;;;64.30;36.22;;;;;;;;;;4954771;28;20035;-64
2021/12/11 14:58:57;;;;;;;63.20;35.92;;;;;;;;;;4954454;28;20101;-64
2021/12/11 15:01:26;;;;;;;40.75;24.42;;;;;;;;;;4955287;28;20042;-66
2021/12/11 15:03:53;;;;;;;58.40;32.67;;;;;;;;;;4957985;28;20031;-65
2021/12/11 15:06:28;;;;;;;45.20;26.60;;;;;;;;;;4961219;28;20039;-64
2021/12/11 15:08:58;;;;;;;36.67;21.35;;;;;;;;;;4937531;28;20035;-65
2021/12/11 15:11:31;;;;;;;44.58;27.35;;;;;;;;;;4955399;28;20464;-67
2021/12/11 15:13:59;;;;;;;48.00;27.15;;;;;;;;;;4959403;28;20098;-65
2021/12/11 15:16:43;;;;;;;50.15;26.90;;;;;;;;;;4962911;28;20019;-65
2021/12/11 15:19:09;;;;;;;37.97;23.17;;;;;;;;;;4974047;28;20516;-66
2021/12/11 15:21:36;;;;;;;35.45;23.30;;;;;;;;;;4967855;28;20035;-64
2021/12/11 15:24:13;;;;;;;47.92;29.33;;;;;;;;;;4937024;29;20035;-66
2021/12/11 15:26:42;;;;;;;47.65;27.98;;;;;;;;;;4954460;29;20847;-66
2021/12/11 15:29:20;;;;;;;41.60;25.52;;;;;;;;;;4951789;28;20055;-67
2021/12/11 15:31:58;;;;;;;44.00;27.33;;;;;;;;;;4954668;28;20367;-65
2021/12/11 15:34:25;;;;;;;48.15;29.00;;;;;;;;;;4954067;28;20024;-65
2021/12/11 15:36:51;;;;;;;48.15;29.35;;;;;;;;;;4954279;28;20043;-66
2021/12/11 15:39:20;;;;;;;50.65;29.85;;;;;;;;;;4951842;28;20034;-65
2021/12/11 15:41:52;;;;;;;37.00;23.63;;;;;;;;;;4973091;28;20031;-66
2021/12/11 15:44:19;;;;;;;48.53;29.27;;;;;;;;;;4972989;28;20022;-66
2021/12/11 15:46:46;;;;;;;51.53;30.05;;;;;;;;;;4973367;28;20100;-65
2021/12/11 15:49:13;;;;;;;67.50;37.95;;;;;;;;;;4954910;28;20031;-66
2021/12/11 15:51:40;;;;;;;52.03;32.05;;;;;;;;;;4972866;28;20023;-64
2021/12/11 15:54:08;;;;;;;44.35;27.35;;;;;;;;;;4973072;28;20058;-64
2021/12/11 15:56:35;;;;;;;45.58;28.75;;;;;;;;;;4954649;28;20618;-64
2021/12/11 15:59:02;;;;;;;50.45;28.55;;;;;;;;;;4972274;28;20153;-66
2021/12/11 16:01:29;;;;;;;47.70;28.85;;;;;;;;;;4950716;28;20039;-68
2021/12/11 16:03:56;;;;;;;36.80;21.35;;;;;;;;;;4955618;28;20027;-65
2021/12/11 16:06:23;;;;;;;46.88;29.67;;;;;;;;;;4973087;28;20228;-68
2021/12/11 16:08:54;;;;;;;44.28;27.08;;;;;;;;;;4971492;28;20022;-66
2021/12/11 16:11:40;;;;;;;36.05;22.58;;;;;;;;;;4972134;28;20564;-65
2021/12/11 16:14:07;;;;;;;48.47;28.60;;;;;;;;;;4957108;28;20197;-64
2021/12/11 16:16:33;;;;;;;46.47;27.98;;;;;;;;;;4973235;28;20077;-66
2021/12/11 16:18:59;;;;;;;60.15;33.92;;;;;;;;;;4955517;28;20038;-69
2021/12/11 16:21:29;;;;;;;44.83;27.20;;;;;;;;;;4973052;28;20027;-65
2021/12/11 21:05:26;;;;;;;54.35;21.50;;;;;;;;;;4894400;29;20052;-71
2021/12/11 21:07:53;;;;;;;56.38;22.23;;;;;;;;;;4896012;29;20044;-69
2021/12/11 21:10:26;;;;;;;49.45;20.02;;;;;;;;;;4896270;29;20031;-66
2021/12/11 21:12:58;;;;;;;60.47;25.92;;;;;;;;;;4894333;29;20068;-68
2021/12/11 21:15:27;;;;;;;51.40;20.27;;;;;;;;;;4903780;29;20235;-73
2021/12/11 21:17:53;;;;;;;52.75;22.45;;;;;;;;;;4903729;29;20039;-71
2021/12/11 21:20:24;;;;;;;50.67;21.00;;;;;;;;;;4905083;29;20151;-65
2021/12/11 21:22:51;;;;;;;51.17;19.98;;;;;;;;;;4894759;29;20380;-62
2021/12/11 21:25:18;;;;;;;48.47;20.75;;;;;;;;;;4878816;29;20120;-64
2021/12/11 21:27:46;;;;;;;24.48;9.82;;;;;;;;;;4877197;29;20065;-71
2021/12/11 21:30:15;;;;;;;37.47;14.10;;;;;;;;;;4877433;29;20105;-61
2021/12/11 21:32:44;;;;;;;44.03;18.83;;;;;;;;;;4877358;29;20040;-60
2021/12/11 21:35:11;;;;;;;37.83;17.20;;;;;;;;;;4888794;29;20149;-77
2021/12/11 21:37:39;;;;;;;37.67;15.88;;;;;;;;;;4895972;29;20043;-72
2021/12/11 21:40:12;;;;;;;33.40;13.05;;;;;;;;;;4895806;29;20036;-60
2021/12/11 21:42:40;;;;;;;16.95;6.63;;;;;;;;;;4895768;29;20029;-73
2021/12/11 21:45:11;;;;;;;33.03;14.32;;;;;;;;;;4895738;29;20349;-64
2021/12/11 21:47:38;;;;;;;38.50;14.85;;;;;;;;;;4895511;29;20068;-60
2021/12/11 21:50:09;;;;;;;41.38;16.10;;;;;;;;;;4895133;29;20036;-73
2021/12/11 21:52:36;;;;;;;20.02;7.55;;;;;;;;;;4887113;29;20120;-59
2021/12/11 21:55:07;;;;;;;34.72;14.48;;;;;;;;;;4876936;29;20044;-60
2021/12/11 21:57:33;;;;;;;36.13;13.50;;;;;;;;;;4876854;29;20037;-63
2021/12/11 22:00:02;;;;;;;23.05;9.50;;;;;;;;;;4876936;29;20085;-75
2021/12/11 22:02:37;;;;;;;42.08;15.95;;;;;;;;;;4876781;29;20430;-63
2021/12/11 22:05:06;;;;;;;23.15;9.55;;;;;;;;;;4874153;29;20075;-68
2021/12/11 22:10:39;;;;;;;33.63;13.43;;;;;;;;;;4774069;27;20051;-62
2021/12/11 22:13:05;;;;;;;47.03;18.00;;;;;;;;;;4914217;29;20757;-64
2021/12/11 22:15:35;;;;;;;38.00;14.52;;;;;;;;;;4914379;29;20047;-63
2021/12/11 22:18:02;;;;;;;42.70;15.73;;;;;;;;;;4912758;29;20039;-62
2021/12/11 22:20:30;;;;;;;30.30;11.20;;;;;;;;;;4914282;29;20040;-62
2021/12/11 22:22:57;;;;;;;32.70;13.95;;;;;;;;;;4914067;29;20020;-63
2021/12/11 22:25:26;;;;;;;33.63;13.63;;;;;;;;;;4914043;29;20507;-62
2021/12/11 22:27:53;;;;;;;33.30;14.07;;;;;;;;;;4914215;29;20127;-61
2021/12/11 22:30:32;;;;;;;31.58;13.27;;;;;;;;;;4914265;29;20048;-62
2021/12/11 22:32:58;;;;;;;34.95;15.00;;;;;;;;;;4915445;29;20024;-62
2021/12/11 22:35:27;;;;;;;44.75;18.52;;;;;;;;;;4917493;29;20028;-62
2021/12/11 22:37:53;;;;;;;62.28;24.00;;;;;;;;;;4915704;29;20062;-61
2021/12/11 22:40:55;;;;;;;57.20;21.15;;;;;;;;;;4915838;29;20037;-62
2021/12/11 22:43:24;;;;;;;43.25;16.95;;;;;;;;;;4840660;29;20490;-62
2021/12/11 22:45:50;;;;;;;46.97;17.25;;;;;;;;;;4840554;29;20041;-60
2021/12/11 22:48:18;;;;;;;48.00;18.60;;;;;;;;;;4825199;29;20070;-62
2021/12/11 22:50:47;;;;;;;48.08;16.17;;;;;;;;;;4840571;29;20041;-60
2021/12/11 22:53:15;;;;;;;51.25;19.23;;;;;;;;;;4840093;29;20430;-63
2021/12/11 22:55:43;;;;;;;48.80;20.05;;;;;;;;;;4840485;29;20132;-59
2021/12/11 22:58:12;;;;;;;67.50;27.52;;;;;;;;;;4824783;29;20459;-60
2021/12/11 23:00:46;;;;;;;56.30;21.05;;;;;;;;;;4840453;29;20498;-62
2021/12/11 23:03:14;;;;;;;57.60;22.00;;;;;;;;;;4840202;29;20041;-61
2021/12/11 23:05:41;;;;;;;52.53;20.52;;;;;;;;;;4840311;29;20554;-61
2021/12/11 23:08:09;;;;;;;53.78;21.42;;;;;;;;;;4850549;29;20439;-61
2021/12/11 23:10:42;;;;;;;56.35;19.90;;;;;;;;;;4839715;29;20115;-61
2021/12/11 23:13:28;;;;;;;60.42;20.35;;;;;;;;;;4839949;29;20038;-60
2021/12/11 23:15:57;;;;;;;41.30;15.63;;;;;;;;;;4839647;29;20098;-64
2021/12/11 23:18:23;;;;;;;54.88;17.83;;;;;;;;;;4912058;29;20036;-60
2021/12/11 23:20:51;;;;;;;54.13;20.63;;;;;;;;;;4916856;29;20032;-63
2021/12/11 23:23:44;;;;;;;60.65;22.08;;;;;;;;;;4916643;29;20036;-61
2021/12/11 23:26:15;;;;;;;59.15;21.73;;;;;;;;;;4913337;29;20026;-62
2021/12/11 23:28:46;;;;;;;54.85;21.13;;;;;;;;;;4916507;29;20550;-62
2021/12/11 23:31:15;;;;;;;51.67;18.70;;;;;;;;;;4899625;29;20051;-61
2021/12/11 23:33:47;;;;;;;62.90;23.73;;;;;;;;;;4915681;29;20032;-61
2021/12/11 23:36:18;;;;;;;57.85;19.10;;;;;;;;;;4916716;29;20111;-60
2021/12/11 23:38:51;;;;;;;60.30;23.50;;;;;;;;;;4916369;29;20040;-61
2021/12/11 23:41:22;;;;;;;51.55;21.13;;;;;;;;;;4916281;29;20035;-60
2021/12/11 23:44:01;;;;;;;54.50;20.90;;;;;;;;;;4916049;29;20028;-61
2021/12/11 23:46:28;;;;;;;57.10;21.33;;;;;;;;;;4915948;29;20029;-61
2021/12/11 23:48:56;;;;;;;60.28;24.23;;;;;;;;;;4916425;29;20043;-61
2021/12/11 23:51:27;;;;;;;56.53;21.27;;;;;;;;;;4916346;29;20127;-61
2021/12/11 23:53:56;;;;;;;57.50;23.90;;;;;;;;;;4915805;29;20036;-63
2021/12/11 23:56:24;;;;;;;45.72;17.30;;;;;;;;;;4916316;29;20036;-62
2021/12/11 23:58:52;;;;;;;55.63;21.33;;;;;;;;;;4899354;29;20448;-63
